Time;durP1;ratioP1;P1;durP2;ratioP2;P2;SDS_P1;SDS_P2;PMS_P1;PMS_P2;Temp;Humidity;BMP_temperature;BMP_pressure;BME280_temperature;BME280_humidity;BME280_pressure;Samples;Min_cycle;Max_cycle;Signal;HPM_P1;HPM_P2
2023/02/07 00:01:18;;;;;;;23.30;15.30;;;;;;;1.56;100.00;98167.13;5040362;28;20489;-61
2023/02/07 00:03:47;;;;;;;15.73;11.25;;;;;;;1.54;100.00;98162.88;5040918;28;20072;-59
2023/02/07 00:06:18;;;;;;;23.92;13.75;;;;;;;1.35;100.00;98153.03;5039728;28;20076;-60
2023/02/07 00:08:47;;;;;;;26.60;15.07;;;;;;;1.59;100.00;98154.03;5035094;28;20100;-60
2023/02/07 00:11:18;;;;;;;26.00;15.63;;;;;;;1.30;100.00;98151.47;5038857;28;20085;-60
2023/02/07 00:13:48;;;;;;;23.55;15.73;;;;;;;0.96;100.00;98155.03;5038672;28;20099;-59
2023/02/07 00:16:17;;;;;;;21.13;13.95;;;;;;;1.21;100.00;98138.75;5043899;28;20080;-60
2023/02/07 00:18:46;;;;;;;21.38;13.60;;;;;;;1.73;100.00;98143.19;5045258;28;20091;-58
2023/02/07 00:21:17;;;;;;;24.88;16.25;;;;;;;1.51;100.00;98144.75;5046267;28;20540;-61
2023/02/07 00:23:46;;;;;;;22.75;13.82;;;;;;;1.30;100.00;98144.50;5042298;28;21079;-60
2023/02/07 00:26:16;;;;;;;28.33;14.82;;;;;;;1.86;100.00;98143.66;5043567;28;20547;-56
2023/02/07 00:28:44;;;;;;;24.02;14.63;;;;;;;1.65;100.00;98139.97;5044321;28;20080;-60
2023/02/07 00:31:16;;;;;;;24.48;13.52;;;;;;;1.90;100.00;98138.31;5043256;28;20087;-60
2023/02/07 00:33:45;;;;;;;20.35;12.25;;;;;;;1.86;100.00;98133.25;5052051;28;20551;-58
2023/02/07 00:36:18;;;;;;;23.25;13.95;;;;;;;2.01;100.00;98124.94;5043765;28;20111;-56
2023/02/07 00:38:46;;;;;;;21.80;14.05;;;;;;;1.75;100.00;98132.75;5047764;28;20679;-59
2023/02/07 00:41:17;;;;;;;22.88;14.75;;;;;;;1.78;100.00;98130.03;5048307;28;20083;-60
2023/02/07 00:43:47;;;;;;;26.63;14.55;;;;;;;1.93;100.00;98115.69;5045104;28;20080;-51
2023/02/07 00:46:16;;;;;;;22.63;13.53;;;;;;;1.53;100.00;98116.97;5044057;28;20081;-59
2023/02/07 00:48:45;;;;;;;21.23;14.43;;;;;;;1.46;100.00;98118.91;5045363;28;20077;-59
2023/02/07 00:51:14;;;;;;;24.02;14.25;;;;;;;1.56;100.00;98127.28;5049737;28;20073;-58
2023/02/07 00:53:44;;;;;;;20.05;12.88;;;;;;;1.58;100.00;98134.16;5050791;28;20080;-59
2023/02/07 00:56:14;;;;;;;18.02;10.55;;;;;;;1.81;100.00;98138.59;5051198;28;20080;-56
2023/02/07 00:58:42;;;;;;;27.83;17.58;;;;;;;1.08;100.00;98138.25;5049060;28;20091;-60
2023/02/07 01:01:11;;;;;;;23.23;15.82;;;;;;;1.50;100.00;98149.13;5050281;28;20076;-57
2023/02/07 01:03:39;;;;;;;25.48;14.95;;;;;;;1.08;100.00;98154.69;5041901;28;20085;-57
2023/02/07 01:06:08;;;;;;;23.05;14.48;;;;;;;0.96;100.00;98162.81;5049088;28;20466;-60
2023/02/07 01:08:37;;;;;;;23.45;13.70;;;;;;;1.09;100.00;98151.19;5040000;28;20474;-60
2023/02/07 01:11:10;;;;;;;27.10;17.75;;;;;;;0.75;100.00;98166.03;5048836;28;20080;-59
2023/02/07 01:13:42;;;;;;;20.77;13.95;;;;;;;0.92;100.00;98172.47;5055483;28;20076;-59
2023/02/07 01:16:17;;;;;;;21.23;14.35;;;;;;;1.03;100.00;98171.31;5048557;28;20482;-56
2023/02/07 01:18:46;;;;;;;19.75;13.65;;;;;;;1.19;100.00;98173.41;5051465;28;20084;-59
2023/02/07 01:21:16;;;;;;;24.33;15.23;;;;;;;0.92;100.00;98176.81;5047705;28;20461;-60
2023/02/07 01:23:44;;;;;;;22.98;14.95;;;;;;;0.79;100.00;98186.69;5051094;28;20083;-59
2023/02/07 01:26:14;;;;;;;20.48;13.07;;;;;;;0.79;100.00;98185.81;5054985;28;20080;-58
2023/02/07 01:28:42;;;;;;;26.48;18.02;;;;;;;0.83;100.00;98187.47;5050894;28;20115;-58
2023/02/07 01:31:12;;;;;;;22.48;14.30;;;;;;;1.13;100.00;98180.53;5051482;28;20073;-59
2023/02/07 01:33:41;;;;;;;22.42;14.52;;;;;;;0.67;100.00;98176.63;5049397;28;20081;-58
2023/02/07 01:36:11;;;;;;;25.05;16.00;;;;;;;0.61;100.00;98167.25;5050863;28;20072;-58
2023/02/07 01:38:40;;;;;;;;;;;;;;;1.04;100.00;98147.91;5049039;28;20085;-59
2023/02/07 01:41:09;;;;;;;22.95;14.45;;;;;;;0.70;100.00;98151.44;5046833;28;19964;-57
2023/02/07 01:46:34;;;;;;;23.23;14.88;;;;;;;0.60;100.00;98162.13;5124703;27;20685;-59
2023/02/07 01:49:06;;;;;;;19.67;11.20;;;;;;;0.60;100.00;98159.53;5120081;27;20088;-59
2023/02/07 01:51:35;;;;;;;20.40;13.13;;;;;;;0.33;100.00;98168.88;5113989;27;20078;-57
2023/02/07 01:54:05;;;;;;;16.52;10.38;;;;;;;0.95;100.00;98167.19;5110043;27;20536;-57
2023/02/07 01:56:35;;;;;;;23.08;13.57;;;;;;;0.65;100.00;98163.72;5120430;27;20086;-57
2023/02/07 01:59:04;;;;;;;24.73;13.60;;;;;;;0.73;100.00;98158.31;5110074;27;20758;-58
2023/02/07 02:01:35;;;;;;;22.17;13.65;;;;;;;0.75;100.00;98171.22;5115374;27;20079;-59
2023/02/07 02:04:04;;;;;;;20.77;12.90;;;;;;;0.56;100.00;98178.69;5115802;27;20078;-58
2023/02/07 02:06:33;;;;;;;21.23;13.55;;;;;;;1.08;100.00;98166.84;5109036;27;20087;-59
2023/02/07 02:09:07;;;;;;;17.47;12.13;;;;;;;0.41;100.00;98170.41;5116995;27;20074;-59
2023/02/07 02:11:48;;;;;;;26.70;13.88;;;;;;;0.28;100.00;98166.41;5115480;27;20087;-58
2023/02/07 02:14:25;;;;;;;24.75;12.35;;;;;;;0.53;100.00;98173.56;5116527;27;20083;-55
2023/02/07 02:17:00;;;;;;;22.15;12.85;;;;;;;0.73;100.00;98170.44;5120111;27;20075;-59
2023/02/07 02:19:50;;;;;;;21.40;13.90;;;;;;;0.80;100.00;98187.56;5110668;27;20093;-59
2023/02/07 02:22:57;;;;;;;20.40;14.35;;;;;;;0.65;100.00;98189.66;5114631;27;20083;-57
2023/02/07 02:25:56;;;;;;;18.65;11.80;;;;;;;0.68;100.00;98176.59;5086149;27;20304;-59
2023/02/07 02:28:54;;;;;;;20.17;11.65;;;;;;;0.62;100.00;98184.56;5108490;27;20086;-59
2023/02/07 02:31:43;;;;;;;19.52;13.07;;;;;;;0.62;100.00;98196.66;5110816;27;20083;-58
2023/02/07 02:34:16;;;;;;;18.35;11.15;;;;;;;0.86;100.00;98190.84;5113269;27;20082;-59
2023/02/07 02:36:52;;;;;;;18.85;12.82;;;;;;;0.41;100.00;98190.28;5113571;27;20074;-58
2023/02/07 02:39:24;;;;;;;23.25;13.90;;;;;;;0.68;100.00;98199.94;5109723;27;20083;-58
2023/02/07 02:41:58;;;;;;;18.33;11.40;;;;;;;0.57;100.00;98189.00;5114306;27;20122;-59
2023/02/07 02:44:29;;;;;;;17.23;11.77;;;;;;;0.51;100.00;98193.50;5119691;27;20554;-57
2023/02/07 02:46:58;;;;;;;23.73;13.52;;;;;;;0.02;100.00;98184.38;5115903;27;20090;-59
2023/02/07 02:49:29;;;;;;;22.33;13.80;;;;;;;0.57;100.00;98176.03;5107070;27;20087;-58
2023/02/07 02:51:57;;;;;;;21.38;13.40;;;;;;;-0.12;100.00;98176.91;5118336;27;20079;-57
2023/02/07 02:54:30;;;;;;;24.48;17.17;;;;;;;-0.45;100.00;98184.56;5117383;27;20085;-57
2023/02/07 02:57:23;;;;;;;23.73;15.85;;;;;;;0.01;100.00;98182.66;5099523;27;20076;-59
2023/02/07 03:00:07;;;;;;;19.30;12.68;;;;;;;0.11;100.00;98177.22;5098869;27;20088;-59
2023/02/07 03:02:40;;;;;;;22.15;15.23;;;;;;;0.03;100.00;98191.25;5094039;28;20487;-57
2023/02/07 03:05:22;;;;;;;18.88;13.48;;;;;;;-0.23;100.00;98197.91;5098406;27;20087;-53
2023/02/07 03:07:57;;;;;;;18.63;12.30;;;;;;;-0.03;100.00;98182.75;5102343;27;20082;-58
2023/02/07 03:10:31;;;;;;;21.38;12.32;;;;;;;0.11;100.00;98177.22;5095973;27;20087;-59
2023/02/07 03:13:09;;;;;;;18.15;11.60;;;;;;;0.15;100.00;98168.47;5093332;28;20475;-58
2023/02/07 03:15:47;;;;;;;20.00;12.85;;;;;;;0.50;100.00;98160.66;5104722;27;20083;-56
2023/02/07 03:18:19;;;;;;;21.77;11.65;;;;;;;-0.07;100.00;98154.31;5099694;27;20087;-53
2023/02/07 03:20:52;;;;;;;16.88;10.85;;;;;;;0.22;100.00;98154.44;5099762;27;20087;-59
2023/02/07 03:23:21;;;;;;;16.63;10.25;;;;;;;0.16;100.00;98157.19;5099658;27;20083;-58
2023/02/07 03:25:51;;;;;;;18.42;11.02;;;;;;;0.08;100.00;98151.34;5099371;27;20079;-55
2023/02/07 03:28:20;;;;;;;18.80;12.98;;;;;;;0.11;100.00;98164.25;5095240;27;20083;-56
2023/02/07 03:30:51;;;;;;;22.63;11.52;;;;;;;0.08;100.00;98166.91;5098066;27;20086;-59
2023/02/07 03:33:20;;;;;;;16.50;10.20;;;;;;;0.58;100.00;98172.53;5100839;27;20086;-59
2023/02/07 03:35:53;;;;;;;14.57;9.73;;;;;;;0.06;100.00;98183.41;5091084;27;20451;-58
2023/02/07 03:38:22;;;;;;;16.38;10.07;;;;;;;0.32;100.00;98174.97;5093243;27;20084;-59
2023/02/07 03:40:53;;;;;;;16.10;11.43;;;;;;;0.07;100.00;98173.00;5090810;28;20785;-58
2023/02/07 03:43:25;;;;;;;15.43;9.55;;;;;;;0.16;100.00;98185.72;5095989;27;20080;-59
2023/02/07 03:45:53;;;;;;;18.73;9.27;;;;;;;0.02;100.00;98179.19;5099157;27;20093;-59
2023/02/07 03:48:21;;;;;;;17.77;11.32;;;;;;;-0.05;100.00;98186.25;5097717;27;20082;-58
2023/02/07 03:50:51;;;;;;;19.38;10.18;;;;;;;0.00;100.00;98181.81;5098868;27;20079;-58
2023/02/07 03:53:20;;;;;;;18.10;11.68;;;;;;;-0.02;100.00;98189.63;5092919;28;20531;-58
2023/02/07 03:55:48;;;;;;;21.08;10.88;;;;;;;0.03;100.00;98184.31;5098466;27;20536;-58
2023/02/07 03:58:17;;;;;;;17.92;10.65;;;;;;;0.02;100.00;98195.59;5097015;28;20080;-59
2023/02/07 04:00:45;;;;;;;17.92;11.18;;;;;;;0.22;100.00;98189.91;5099375;27;20125;-56
2023/02/07 04:03:13;;;;;;;17.95;10.02;;;;;;;0.37;100.00;98186.91;5095729;27;20090;-59
2023/02/07 04:05:44;;;;;;;17.20;9.40;;;;;;;0.01;100.00;98186.09;5097426;27;20075;-59
2023/02/07 04:08:13;;;;;;;18.35;11.40;;;;;;;0.13;100.00;98190.13;5095614;27;20099;-56
2023/02/07 04:10:42;;;;;;;19.15;11.50;;;;;;;0.42;100.00;98192.84;5093983;28;20084;-58
2023/02/07 04:13:10;;;;;;;17.23;11.00;;;;;;;0.35;100.00;98182.69;5090958;27;20083;-57
2023/02/07 04:15:38;;;;;;;17.08;10.13;;;;;;;0.54;100.00;98180.44;5098687;27;20082;-59
2023/02/07 04:18:07;;;;;;;17.83;10.70;;;;;;;0.60;100.00;98168.16;5098081;27;20581;-59
2023/02/07 04:20:35;;;;;;;19.88;10.07;;;;;;;0.86;100.00;98163.97;5098677;27;20075;-58
2023/02/07 04:23:04;;;;;;;20.35;10.05;;;;;;;0.85;99.59;98160.53;5101543;27;20083;-57
2023/02/07 04:25:33;;;;;;;16.77;10.18;;;;;;;0.95;96.85;98171.53;5101469;27;20058;-59
2023/02/07 04:28:02;;;;;;;15.93;10.77;;;;;;;0.98;94.35;98171.44;5097167;27;20482;-58
2023/02/07 04:30:30;;;;;;;16.15;9.80;;;;;;;1.29;89.60;98160.16;5090946;27;20086;-59
2023/02/07 04:32:59;;;;;;;18.42;10.93;;;;;;;1.18;87.30;98166.53;5103247;27;20158;-59
2023/02/07 04:35:27;;;;;;;18.35;10.43;;;;;;;1.53;83.77;98154.22;5094008;28;20087;-60
2023/02/07 04:37:55;;;;;;;14.63;9.77;;;;;;;1.69;79.21;98152.00;5094418;27;20094;-59
2023/02/07 04:40:24;;;;;;;16.08;9.25;;;;;;;1.70;78.25;98140.69;5092769;27;20079;-59
2023/02/07 04:42:53;;;;;;;16.33;10.43;;;;;;;1.42;78.17;98138.09;5099737;27;20072;-58
2023/02/07 04:45:22;;;;;;;19.63;11.02;;;;;;;0.76;91.31;98147.84;5095713;27;20091;-59
2023/02/07 04:47:50;;;;;;;19.42;10.70;;;;;;;0.89;93.66;98149.16;5099074;27;20075;-59
2023/02/07 04:50:18;;;;;;;19.60;11.13;;;;;;;0.61;97.94;98156.88;5095836;27;20083;-57
2023/02/07 04:52:47;;;;;;;16.58;10.80;;;;;;;0.45;100.00;98165.97;5094387;28;20551;-59
2023/02/07 04:55:15;;;;;;;16.70;10.52;;;;;;;0.36;100.00;98176.59;5096664;27;20086;-58
2023/02/07 04:57:43;;;;;;;18.55;11.40;;;;;;;0.44;100.00;98179.81;5102346;27;20075;-57
2023/02/07 05:00:14;;;;;;;14.43;9.20;;;;;;;0.55;100.00;98174.34;5099122;27;20082;-58
2023/02/07 05:02:43;;;;;;;17.80;11.02;;;;;;;0.56;100.00;98181.28;5096227;27;20079;-58
2023/02/07 05:05:11;;;;;;;16.63;10.15;;;;;;;0.81;99.19;98190.09;5090649;27;20075;-59
2023/02/07 05:07:39;;;;;;;17.52;11.43;;;;;;;0.07;100.00;98191.16;5096605;28;20071;-60
2023/02/07 05:10:08;;;;;;;18.38;10.18;;;;;;;-0.05;100.00;98191.44;5097472;27;20086;-57
2023/02/07 05:12:36;;;;;;;19.02;10.98;;;;;;;0.33;100.00;98184.44;5095542;28;20083;-57
2023/02/07 05:15:05;;;;;;;20.02;11.35;;;;;;;0.20;100.00;98181.31;5094262;27;20117;-61
2023/02/07 05:17:37;;;;;;;17.00;10.57;;;;;;;0.30;100.00;98187.13;5101209;27;20075;-57
2023/02/07 05:20:07;;;;;;;14.18;8.38;;;;;;;0.02;100.00;98185.22;5095300;27;20088;-59
2023/02/07 05:22:35;;;;;;;17.27;11.23;;;;;;;0.22;100.00;98180.38;5098022;27;20097;-60
2023/02/07 05:25:04;;;;;;;19.35;10.77;;;;;;;0.21;100.00;98185.63;5093581;27;20484;-56
2023/02/07 05:27:32;;;;;;;19.98;12.18;;;;;;;0.02;100.00;98177.44;5095220;27;20079;-59
2023/02/07 05:30:00;;;;;;;16.27;12.15;;;;;;;-0.30;100.00;98180.81;5094643;28;20080;-59
2023/02/07 05:35:16;;;;;;;21.38;12.80;;;;;;;0.17;100.00;98173.59;5096060;27;20083;-60
2023/02/07 05:37:45;;;;;;;24.88;12.70;;;;;;;0.17;100.00;98169.28;5094002;28;20072;-60
2023/02/07 05:40:13;;;;;;;17.98;10.70;;;;;;;0.21;100.00;98176.09;5095070;27;20076;-60
2023/02/07 05:42:41;;;;;;;21.30;11.65;;;;;;;0.28;100.00;98176.78;5094274;28;20656;-57
2023/02/07 05:45:10;;;;;;;19.13;10.95;;;;;;;0.14;100.00;98179.75;5103252;28;20468;-60
2023/02/07 05:47:38;;;;;;;23.60;11.70;;;;;;;0.00;100.00;98187.00;5103791;27;20075;-59
2023/02/07 05:50:07;;;;;;;21.58;12.05;;;;;;;0.08;100.00;98187.66;5094168;28;20166;-59
2023/02/07 05:52:37;;;;;;;21.02;11.23;;;;;;;0.54;100.00;98180.44;5098475;28;20483;-59
2023/02/07 05:55:06;;;;;;;19.27;11.45;;;;;;;0.33;100.00;98180.13;5096073;27;20079;-58
2023/02/07 05:57:34;;;;;;;16.95;10.88;;;;;;;0.98;94.60;98174.03;5095298;28;20470;-59
2023/02/07 06:00:03;;;;;;;21.75;11.02;;;;;;;0.87;92.82;98184.75;5095033;28;20094;-60
2023/02/07 06:02:32;;;;;;;15.68;10.15;;;;;;;0.33;100.00;98195.69;5100265;28;20483;-59
2023/02/07 06:05:00;;;;;;;16.85;8.43;;;;;;;0.82;94.96;98204.78;5095508;28;20133;-60
2023/02/07 06:07:28;;;;;;;20.20;10.07;;;;;;;0.78;99.58;98210.09;5097092;28;20079;-60
2023/02/07 06:09:58;;;;;;;19.65;11.38;;;;;;;0.73;91.68;98210.22;5096422;28;20535;-59
2023/02/07 06:12:26;;;;;;;20.75;12.25;;;;;;;0.43;100.00;98222.25;5100209;28;20091;-57
2023/02/07 06:14:55;;;;;;;20.20;11.80;;;;;;;0.76;98.02;98217.06;5093104;28;20083;-60
2023/02/07 06:17:23;;;;;;;20.98;11.07;;;;;;;0.81;97.98;98217.81;5099603;28;20079;-57
2023/02/07 06:19:51;;;;;;;16.67;10.52;;;;;;;0.89;95.41;98223.63;5096627;28;20086;-58
2023/02/07 06:22:20;;;;;;;24.02;13.32;;;;;;;0.89;93.77;98215.84;5095958;28;20459;-60
2023/02/07 06:24:49;;;;;;;23.17;12.40;;;;;;;1.03;89.62;98213.72;5097596;28;20090;-59
2023/02/07 06:27:18;;;;;;;23.30;11.45;;;;;;;1.24;88.74;98206.22;5094520;28;20105;-59
2023/02/07 06:29:47;;;;;;;31.70;15.85;;;;;;;1.00;87.64;98206.03;5088318;28;20079;-59
2023/02/07 06:32:15;;;;;;;23.13;12.48;;;;;;;0.65;93.71;98210.44;5096285;27;20092;-60
2023/02/07 06:34:44;;;;;;;23.48;13.15;;;;;;;0.77;94.37;98209.25;5103344;27;20074;-57
2023/02/07 06:37:12;;;;;;;22.50;11.98;;;;;;;1.34;87.17;98205.03;5100496;27;20079;-59
2023/02/07 06:39:40;;;;;;;21.90;11.48;;;;;;;1.32;82.66;98202.50;5104299;27;20063;-58
2023/02/07 06:42:09;;;;;;;22.42;11.80;;;;;;;1.13;85.47;98209.13;5098617;28;20083;-57
2023/02/07 06:44:38;;;;;;;19.50;10.93;;;;;;;1.28;81.91;98219.09;5092184;28;20131;-60
2023/02/07 06:47:07;;;;;;;22.80;11.65;;;;;;;0.68;85.42;98225.06;5093895;28;20086;-60
2023/02/07 06:49:36;;;;;;;17.23;10.82;;;;;;;0.60;86.43;98224.41;5102376;27;20079;-60
2023/02/07 06:52:05;;;;;;;20.60;11.10;;;;;;;0.62;87.02;98223.50;5098127;27;20107;-59
2023/02/07 06:54:33;;;;;;;15.60;9.90;;;;;;;0.50;91.08;98230.75;5100872;27;20123;-60
2023/02/07 06:57:02;;;;;;;20.58;11.20;;;;;;;0.78;89.90;98225.69;5098384;27;20087;-61
2023/02/07 06:59:30;;;;;;;21.40;11.35;;;;;;;0.55;95.32;98227.16;5095971;27;20071;-60
2023/02/07 07:02:00;;;;;;;20.30;12.30;;;;;;;0.64;93.73;98223.44;5100968;27;20082;-57
2023/02/07 07:04:28;;;;;;;25.45;12.35;;;;;;;1.11;87.60;98222.16;5103974;27;20080;-58
2023/02/07 07:06:56;;;;;;;23.90;12.25;;;;;;;0.89;92.75;98215.84;5097574;27;20079;-60
2023/02/07 07:09:25;;;;;;;19.42;12.05;;;;;;;0.99;93.72;98211.25;5097387;27;20086;-59
2023/02/07 07:11:53;;;;;;;18.92;12.30;;;;;;;1.18;91.36;98215.06;5103534;27;20063;-60
2023/02/07 07:14:21;;;;;;;23.40;12.32;;;;;;;0.95;87.44;98218.28;5101652;27;20710;-60
2023/02/07 07:16:50;;;;;;;22.40;12.77;;;;;;;0.95;87.89;98232.13;5103349;27;20084;-58
2023/02/07 07:19:20;;;;;;;21.23;12.63;;;;;;;1.03;89.35;98218.91;5101132;27;20091;-60
2023/02/07 07:21:48;;;;;;;23.20;13.90;;;;;;;0.94;88.66;98219.19;5097035;27;20079;-61
2023/02/07 07:24:16;;;;;;;21.88;12.25;;;;;;;0.61;96.91;98229.56;5104015;27;20539;-59
2023/02/07 07:26:45;;;;;;;23.15;13.35;;;;;;;0.62;95.68;98220.03;5097340;27;20067;-60
2023/02/07 07:29:17;;;;;;;21.83;12.82;;;;;;;0.77;100.00;98222.22;5097603;27;20063;-58
2023/02/07 07:31:45;;;;;;;23.45;12.98;;;;;;;0.87;99.39;98235.84;5099730;27;20090;-59
2023/02/07 07:34:14;;;;;;;24.13;13.73;;;;;;;0.66;99.01;98229.47;5097045;27;20060;-59
2023/02/07 07:36:44;;;;;;;24.65;13.63;;;;;;;0.68;100.00;98225.91;5098718;27;20084;-58
2023/02/07 07:39:13;;;;;;;23.75;14.43;;;;;;;0.18;100.00;98228.06;5093810;27;20071;-59
2023/02/07 07:41:41;;;;;;;28.65;12.52;;;;;;;0.82;100.00;98219.50;5103915;27;20036;-59
2023/02/07 07:44:10;;;;;;;20.85;11.13;;;;;;;0.35;100.00;98216.41;5104949;27;20071;-59
2023/02/07 07:46:38;;;;;;;22.67;13.38;;;;;;;0.26;100.00;98209.69;5100482;27;20082;-61
2023/02/07 07:49:07;;;;;;;25.92;14.43;;;;;;;0.20;100.00;98202.91;5103864;27;20440;-60
2023/02/07 07:51:35;;;;;;;19.65;10.45;;;;;;;0.38;100.00;98212.00;5099713;27;20087;-60
2023/02/07 07:54:05;;;;;;;20.23;12.75;;;;;;;0.68;100.00;98212.94;5101063;27;20074;-57
2023/02/07 07:56:34;;;;;;;19.13;10.82;;;;;;;0.26;100.00;98212.28;5101600;27;20334;-60
2023/02/07 07:59:02;;;;;;;20.52;10.50;;;;;;;0.83;100.00;98203.06;5098948;27;20513;-58
2023/02/07 08:01:36;;;;;;;19.27;10.65;;;;;;;0.87;100.00;98200.31;5091029;27;20067;-60
2023/02/07 08:04:04;;;;;;;23.58;11.77;;;;;;;1.56;100.00;98200.94;5097060;27;20078;-59
2023/02/07 08:06:33;;;;;;;21.42;12.07;;;;;;;1.02;100.00;98214.63;5106495;27;20075;-60
2023/02/07 08:09:01;;;;;;;17.90;10.20;;;;;;;0.92;100.00;98208.81;5095666;27;20101;-57
2023/02/07 08:11:31;;;;;;;24.40;13.38;;;;;;;0.50;100.00;98226.41;5105930;27;20081;-58
2023/02/07 08:13:59;;;;;;;20.73;11.35;;;;;;;1.24;100.00;98214.00;5103574;27;20066;-56
2023/02/07 08:16:28;;;;;;;18.08;9.63;;;;;;;1.54;100.00;98207.91;5088596;27;20130;-56
2023/02/07 08:18:56;;;;;;;21.20;9.85;;;;;;;1.49;100.00;98207.22;5098205;28;20071;-58
2023/02/07 08:21:25;;;;;;;23.20;13.57;;;;;;;1.07;100.00;98217.97;5104966;27;20791;-58
2023/02/07 08:23:53;;;;;;;22.08;11.57;;;;;;;1.35;100.00;98204.19;5097514;27;20074;-54
2023/02/07 08:26:22;;;;;;;20.88;12.75;;;;;;;1.06;100.00;98211.03;5104653;27;20071;-51
2023/02/07 08:28:52;;;;;;;34.45;9.85;;;;;;;1.98;99.12;98218.72;5106658;27;20538;-54
2023/02/07 08:31:20;;;;;;;24.35;16.75;;;;;;;0.84;100.00;98234.16;5096716;27;20558;-55
2023/02/07 08:33:48;;;;;;;19.80;11.50;;;;;;;1.41;100.00;98224.75;5099861;27;20091;-56
2023/02/07 08:36:17;;;;;;;19.92;11.68;;;;;;;1.84;100.00;98221.75;5096755;28;20102;-50
2023/02/07 08:38:45;;;;;;;18.42;8.57;;;;;;;1.74;100.00;98220.31;5104925;27;20083;-55
2023/02/07 08:41:13;;;;;;;22.42;13.40;;;;;;;1.50;100.00;98231.47;5098424;27;20491;-56
2023/02/07 08:43:42;;;;;;;19.42;10.57;;;;;;;1.70;99.37;98231.72;5094088;27;20090;-53
2023/02/07 08:46:11;;;;;;;17.00;10.85;;;;;;;1.72;97.18;98231.66;5096495;27;20075;-54
2023/02/07 08:48:40;;;;;;;20.63;10.52;;;;;;;1.75;97.61;98224.63;5100520;27;20086;-51
2023/02/07 08:51:09;;;;;;;22.52;13.13;;;;;;;1.44;99.38;98224.69;5107204;27;20573;-55
2023/02/07 08:53:37;;;;;;;17.42;8.48;;;;;;;2.27;97.66;98227.31;5101788;27;20531;-55
2023/02/07 08:56:07;;;;;;;19.75;10.18;;;;;;;2.42;94.04;98226.84;5102788;27;20075;-53
2023/02/07 08:58:35;;;;;;;17.10;9.48;;;;;;;1.98;92.01;98223.91;5101493;27;20090;-58
2023/02/07 09:01:06;;;;;;;23.90;12.20;;;;;;;1.84;91.28;98224.34;5105786;27;20071;-57
2023/02/07 09:03:36;;;;;;;16.77;9.63;;;;;;;2.76;86.23;98226.56;5102820;27;20087;-57
2023/02/07 09:06:05;;;;;;;23.38;11.63;;;;;;;2.67;82.45;98223.41;5102834;27;20075;-53
2023/02/07 09:08:33;;;;;;;18.48;10.70;;;;;;;2.14;95.67;98230.34;5103467;27;20089;-52
2023/02/07 09:11:01;;;;;;;19.42;8.70;;;;;;;2.58;94.01;98233.25;5099698;27;20487;-56
2023/02/07 09:13:36;;;;;;;17.60;10.45;;;;;;;2.31;90.82;98223.75;5098788;27;20125;-52
2023/02/07 09:16:05;;;;;;;15.85;8.90;;;;;;;2.99;86.04;98225.72;5108334;27;20076;-53
2023/02/07 09:18:34;;;;;;;19.90;10.55;;;;;;;2.92;86.37;98237.28;5093795;27;20079;-55
2023/02/07 09:21:05;;;;;;;23.13;14.48;;;;;;;2.74;87.37;98227.50;5102705;27;20079;-52
2023/02/07 09:23:34;;;;;;;19.02;8.52;;;;;;;2.57;86.40;98236.72;5104221;27;20079;-59
2023/02/07 09:26:05;;;;;;;21.60;12.27;;;;;;;3.12;81.81;98230.53;5094429;27;20079;-54
2023/02/07 09:28:34;;;;;;;17.95;12.07;;;;;;;3.11;81.88;98239.25;5101247;28;20090;-54
2023/02/07 09:31:07;;;;;;;19.45;10.40;;;;;;;3.64;80.98;98228.59;5100528;27;20090;-56
2023/02/07 09:33:36;;;;;;;14.35;7.13;;;;;;;3.62;78.48;98231.28;5097219;27;20077;-58
2023/02/07 09:36:07;;;;;;;21.70;12.48;;;;;;;2.72;82.14;98247.53;5103474;28;20079;-54
2023/02/07 09:38:35;;;;;;;16.55;9.82;;;;;;;2.85;82.74;98228.81;5099080;28;20087;-55
2023/02/07 09:41:04;;;;;;;18.85;10.02;;;;;;;3.63;79.64;98216.47;5100026;28;20707;-55
2023/02/07 09:43:36;;;;;;;17.70;11.23;;;;;;;3.03;80.64;98229.09;5097711;28;20465;-57
2023/02/07 09:46:11;;;;;;;12.80;7.07;;;;;;;4.08;72.25;98213.81;5099505;28;20082;-54
2023/02/07 09:48:45;;;;;;;14.55;7.97;;;;;;;3.56;73.30;98227.13;5099813;28;20090;-53
2023/02/07 09:51:19;;;;;;;20.48;12.20;;;;;;;3.33;75.51;98229.72;5104460;28;20074;-56
2023/02/07 09:53:53;;;;;;;16.25;10.48;;;;;;;3.37;75.47;98220.88;5090915;28;20083;-55
2023/02/07 09:56:24;;;;;;;19.40;12.77;;;;;;;3.03;80.67;98231.72;5097764;28;20087;-57
2023/02/07 09:58:59;;;;;;;17.27;10.60;;;;;;;3.64;75.60;98216.41;5096125;28;20087;-56
2023/02/07 10:01:30;;;;;;;19.50;11.40;;;;;;;3.38;76.69;98222.59;5094692;27;20094;-58
2023/02/07 10:04:06;;;;;;;13.75;8.70;;;;;;;3.92;73.86;98208.38;5105099;28;20082;-59
2023/02/07 10:06:36;;;;;;;17.17;9.52;;;;;;;3.50;72.35;98208.25;5103816;27;20482;-55
2023/02/07 10:09:09;;;;;;;17.67;10.48;;;;;;;3.62;74.81;98206.94;5111259;27;20079;-52
2023/02/07 10:11:45;;;;;;;21.00;12.30;;;;;;;3.67;71.91;98202.38;5099754;27;20087;-51
2023/02/07 10:14:24;;;;;;;22.92;12.30;;;;;;;3.84;74.16;98201.75;5098567;27;20079;-56
2023/02/07 10:17:06;;;;;;;19.05;9.52;;;;;;;3.95;69.09;98196.94;5105953;27;20532;-52
2023/02/07 10:19:42;;;;;;;15.82;9.23;;;;;;;4.26;71.07;98193.94;5097832;27;20083;-54
2023/02/07 10:22:20;;;;;;;18.30;9.60;;;;;;;4.23;68.71;98192.31;5099489;27;20082;-57
2023/02/07 10:25:00;;;;;;;13.43;8.13;;;;;;;4.71;70.25;98198.16;5101460;27;20087;-57
2023/02/07 10:27:29;;;;;;;;;;;;;;;4.36;70.96;98202.25;5104382;27;20083;-58
2023/02/07 10:30:03;;;;;;;17.23;10.60;;;;;;;4.24;67.26;98208.84;5108432;27;19963;-54
2023/02/07 10:32:35;;;;;;;16.42;8.98;;;;;;;4.31;66.29;98204.22;5101194;27;20282;-52
2023/02/07 10:35:10;;;;;;;13.38;6.82;;;;;;;5.15;66.03;98198.84;5104308;27;20086;-57
2023/02/07 10:37:42;;;;;;;13.30;5.93;;;;;;;5.20;62.76;98209.97;5107134;27;20079;-53
2023/02/07 10:40:14;;;;;;;13.05;6.78;;;;;;;4.79;62.89;98210.91;5101804;27;20839;-50
2023/02/07 10:42:46;;;;;;;14.75;8.55;;;;;;;4.84;62.52;98212.41;5101038;27;20757;-58
2023/02/07 10:45:14;;;;;;;16.02;10.02;;;;;;;4.80;62.89;98213.44;5103742;27;20089;-53
2023/02/07 10:47:43;;;;;;;18.00;9.73;;;;;;;5.30;61.52;98207.78;5110573;27;20090;-54
2023/02/07 10:50:15;;;;;;;15.10;9.43;;;;;;;4.53;61.39;98216.31;5106377;27;20079;-55
2023/02/07 10:52:58;;;;;;;13.35;7.03;;;;;;;5.10;61.75;98215.66;5100355;27;20076;-57
2023/02/07 10:55:38;;;;;;;;;;;;;;;5.46;60.02;98202.69;5107159;27;20106;-57
2023/02/07 10:58:06;;;;;;;17.55;10.15;;;;;;;4.67;57.13;98220.13;5099280;27;19958;-55
2023/02/07 11:00:49;;;;;;;13.82;8.65;;;;;;;5.04;57.68;98206.31;5099226;27;20068;-60
2023/02/07 11:03:19;;;;;;;11.05;5.75;;;;;;;5.66;56.27;98204.41;5104149;27;20102;-58
2023/02/07 11:05:56;;;;;;;10.70;6.68;;;;;;;4.51;53.45;98212.94;5103958;27;20098;-56
2023/02/07 11:08:28;;;;;;;12.20;6.63;;;;;;;5.30;52.55;98206.91;5095578;27;20091;-53
2023/02/07 11:10:57;;;;;;;10.48;5.47;;;;;;;4.84;51.22;98199.34;5104143;27;20835;-56
2023/02/07 11:13:27;;;;;;;9.93;5.53;;;;;;;4.95;49.12;98207.56;5100012;27;20535;-54
2023/02/07 11:15:57;;;;;;;;;;;;;;;5.31;48.28;98196.41;5103068;27;20480;-58
2023/02/07 11:18:36;;;;;;;12.55;6.75;;;;;;;4.95;48.73;98201.47;5101072;27;19959;-58
2023/02/07 11:21:20;;;;;;;8.10;4.70;;;;;;;4.85;47.04;98201.06;5099350;28;20563;-57
2023/02/07 11:23:51;;;;;;;9.65;5.93;;;;;;;5.08;46.69;98188.72;5103113;27;20586;-55
2023/02/07 11:26:20;;;;;;;9.88;5.70;;;;;;;5.23;46.19;98190.66;5106696;28;20076;-54
2023/02/07 11:28:51;;;;;;;11.48;5.53;;;;;;;5.28;45.96;98183.44;5108761;27;20080;-58
2023/02/07 11:31:26;;;;;;;12.10;7.13;;;;;;;5.61;45.10;98188.91;5107152;27;20535;-53
2023/02/07 11:33:55;;;;;;;10.45;6.68;;;;;;;5.37;45.99;98190.88;5100992;27;20070;-53
2023/02/07 11:36:24;;;;;;;12.80;7.50;;;;;;;4.91;47.79;98184.22;5103419;27;20083;-58
2023/02/07 11:38:57;;;;;;;12.65;6.75;;;;;;;5.37;47.54;98177.81;5096216;27;20087;-55
2023/02/07 11:41:27;;;;;;;13.07;6.65;;;;;;;5.60;46.33;98181.97;5105507;27;20526;-55
2023/02/07 11:43:58;;;;;;;12.82;6.75;;;;;;;6.11;45.97;98175.22;5096440;27;20071;-57
2023/02/07 11:46:33;;;;;;;15.25;6.57;;;;;;;5.94;46.69;98170.78;5096175;27;20083;-57